Time;durP1;ratioP1;P1;durP2;ratioP2;P2;SDS_P1;SDS_P2;PMS_P1;PMS_P2;Temp;Humidity;BMP_temperature;BMP_pressure;BME280_temperature;BME280_humidity;BME280_pressure;Samples;Min_cycle;Max_cycle;Signal;HPM_P1;HPM_P2
2022/11/24 00:03:53;;;;;;;25.90;20.95;;;;;;;;;;10266989;28;20045;-61
2022/11/24 00:08:53;;;;;;;24.70;22.08;;;;;;;;;;10267558;28;20092;-61
2022/11/24 00:13:52;;;;;;;22.42;19.45;;;;;;;;;;10266912;28;20079;-60
2022/11/24 00:18:51;;;;;;;26.65;23.50;;;;;;;;;;10267763;28;20041;-61
2022/11/24 00:23:50;;;;;;;34.63;26.60;;;;;;;;;;10267994;28;20490;-61
2022/11/24 00:28:50;;;;;;;29.35;24.50;;;;;;;;;;10267455;28;20518;-61
2022/11/24 00:33:49;;;;;;;29.33;23.23;;;;;;;;;;10267933;28;20080;-60
2022/11/24 00:38:48;;;;;;;27.00;22.25;;;;;;;;;;10267207;28;20081;-60
2022/11/24 00:43:46;;;;;;;26.25;22.13;;;;;;;;;;10266532;28;20512;-60
2022/11/24 00:48:45;;;;;;;25.83;22.30;;;;;;;;;;10273711;28;20088;-60
2022/11/24 00:53:44;;;;;;;26.23;23.42;;;;;;;;;;10275608;28;20041;-59
2022/11/24 00:58:42;;;;;;;26.95;22.10;;;;;;;;;;10275440;28;20083;-59
2022/11/24 01:03:41;;;;;;;27.35;22.30;;;;;;;;;;10280365;28;20049;-60
2022/11/24 01:08:41;;;;;;;25.63;22.85;;;;;;;;;;10276401;28;20083;-60
2022/11/24 01:13:40;;;;;;;28.40;22.63;;;;;;;;;;10274285;28;20041;-61
2022/11/24 01:18:38;;;;;;;29.52;21.88;;;;;;;;;;10275519;28;20065;-61
2022/11/24 01:23:36;;;;;;;27.60;22.02;;;;;;;;;;10275163;28;20047;-60
2022/11/24 01:28:36;;;;;;;30.30;20.52;;;;;;;;;;10274238;28;20072;-61
2022/11/24 01:33:40;;;;;;;24.00;20.20;;;;;;;;;;10275012;28;20056;-61
2022/11/24 01:38:38;;;;;;;31.30;22.85;;;;;;;;;;10274664;28;20048;-62
2022/11/24 01:43:38;;;;;;;27.27;23.38;;;;;;;;;;10275231;28;20041;-61
2022/11/24 01:48:38;;;;;;;26.40;22.75;;;;;;;;;;10273711;28;20049;-61
2022/11/24 01:53:36;;;;;;;28.23;24.08;;;;;;;;;;10274058;28;20110;-60
2022/11/24 01:58:36;;;;;;;26.40;21.60;;;;;;;;;;10273124;28;20095;-61
2022/11/24 02:03:38;;;;;;;24.60;21.50;;;;;;;;;;10273382;28;20072;-60
2022/11/24 02:08:40;;;;;;;24.98;19.85;;;;;;;;;;10274155;28;20091;-60
2022/11/24 02:13:40;;;;;;;22.00;18.27;;;;;;;;;;10273417;28;20072;-62
2022/11/24 02:18:40;;;;;;;26.00;20.13;;;;;;;;;;10273498;28;20741;-61
2022/11/24 02:23:40;;;;;;;28.10;21.55;;;;;;;;;;10273477;28;20073;-60
2022/11/24 02:28:40;;;;;;;28.48;20.98;;;;;;;;;;10273199;28;20072;-61
2022/11/24 02:33:38;;;;;;;27.38;20.90;;;;;;;;;;10272876;28;20045;-61
2022/11/24 02:38:36;;;;;;;22.92;19.08;;;;;;;;;;10273115;28;20053;-61
2022/11/24 02:43:36;;;;;;;26.40;20.92;;;;;;;;;;10271645;28;20525;-60
2022/11/24 02:48:36;;;;;;;25.92;20.85;;;;;;;;;;10271224;28;20099;-60
2022/11/24 02:53:34;;;;;;;27.48;22.77;;;;;;;;;;10272019;28;20077;-60
2022/11/24 02:58:33;;;;;;;32.30;21.90;;;;;;;;;;10270503;28;20064;-61
2022/11/24 03:03:31;;;;;;;71.43;52.63;;;;;;;;;;10271049;28;20073;-61
2022/11/24 03:08:31;;;;;;;34.97;26.17;;;;;;;;;;10269570;28;20546;-60
2022/11/24 03:13:29;;;;;;;34.28;23.52;;;;;;;;;;10269648;28;20095;-60
2022/11/24 03:18:27;;;;;;;32.08;26.45;;;;;;;;;;10268776;28;20042;-60
2022/11/24 03:23:26;;;;;;;28.90;21.98;;;;;;;;;;10269848;28;20064;-60
2022/11/24 03:28:25;;;;;;;25.48;19.80;;;;;;;;;;10269654;28;20076;-60
2022/11/24 03:33:23;;;;;;;25.02;18.75;;;;;;;;;;10270521;28;20087;-60
2022/11/24 03:38:22;;;;;;;24.80;20.05;;;;;;;;;;10269783;28;20037;-61
2022/11/24 03:43:20;;;;;;;26.42;20.38;;;;;;;;;;10269320;28;20068;-60
2022/11/24 03:48:20;;;;;;;26.83;18.63;;;;;;;;;;10269540;28;20084;-61
2022/11/24 03:53:18;;;;;;;27.63;22.02;;;;;;;;;;10269044;28;20510;-61
2022/11/24 03:58:17;;;;;;;36.03;26.65;;;;;;;;;;10267760;28;20068;-60
2022/11/24 04:03:15;;;;;;;37.42;25.10;;;;;;;;;;10268070;28;20071;-60
2022/11/24 04:08:14;;;;;;;40.08;25.52;;;;;;;;;;10268506;28;20084;-60
2022/11/24 04:13:14;;;;;;;40.67;25.05;;;;;;;;;;10267968;28;20522;-60
2022/11/24 04:18:12;;;;;;;44.90;32.38;;;;;;;;;;10268588;28;20076;-61
2022/11/24 04:23:11;;;;;;;46.80;25.10;;;;;;;;;;10271641;28;20072;-60
2022/11/24 04:28:11;;;;;;;36.40;23.63;;;;;;;;;;10268192;28;20083;-61
2022/11/24 04:33:09;;;;;;;62.67;34.15;;;;;;;;;;10268483;28;20175;-61
2022/11/24 04:38:07;;;;;;;34.60;22.60;;;;;;;;;;10267922;28;20073;-61
2022/11/24 04:43:05;;;;;;;45.88;26.08;;;;;;;;;;10266362;28;20100;-61
2022/11/24 04:48:05;;;;;;;38.38;23.98;;;;;;;;;;10266682;28;20455;-62
2022/11/24 04:53:03;;;;;;;32.85;20.85;;;;;;;;;;10269642;28;20494;-61
2022/11/24 04:58:02;;;;;;;35.60;21.92;;;;;;;;;;10265939;28;20077;-61
2022/11/24 05:03:00;;;;;;;36.55;23.20;;;;;;;;;;10269690;28;20490;-61
2022/11/24 05:08:00;;;;;;;56.25;36.00;;;;;;;;;;10269959;28;20099;-60
2022/11/24 05:12:59;;;;;;;50.60;29.80;;;;;;;;;;10263407;28;20091;-60
2022/11/24 05:17:57;;;;;;;35.92;21.38;;;;;;;;;;10268352;28;20465;-60
2022/11/24 05:22:55;;;;;;;28.40;20.38;;;;;;;;;;10265141;28;20073;-60
2022/11/24 05:27:55;;;;;;;28.77;21.88;;;;;;;;;;10261652;28;20440;-60
2022/11/24 05:32:53;;;;;;;38.83;24.73;;;;;;;;;;10265543;28;20064;-60
2022/11/24 05:37:51;;;;;;;30.27;24.25;;;;;;;;;;10276310;28;20072;-60
2022/11/24 05:42:50;;;;;;;24.40;17.85;;;;;;;;;;10270059;28;20072;-60
2022/11/24 05:47:49;;;;;;;19.92;16.17;;;;;;;;;;10276309;28;20041;-60
2022/11/24 05:52:48;;;;;;;19.90;13.30;;;;;;;;;;10275619;28;20081;-60
2022/11/24 05:57:46;;;;;;;14.98;12.02;;;;;;;;;;10275998;28;20190;-60
2022/11/24 06:02:44;;;;;;;17.90;14.48;;;;;;;;;;10276337;28;20093;-61
2022/11/24 06:07:44;;;;;;;20.02;16.67;;;;;;;;;;10275775;28;20072;-60
2022/11/24 06:12:42;;;;;;;16.05;12.18;;;;;;;;;;10275373;28;20080;-60
2022/11/24 06:17:40;;;;;;;27.52;17.55;;;;;;;;;;10273772;28;20053;-61
2022/11/24 06:22:39;;;;;;;22.90;16.15;;;;;;;;;;10275313;28;20293;-61
2022/11/24 06:27:38;;;;;;;22.35;16.15;;;;;;;;;;10276481;28;20084;-61
2022/11/24 06:32:37;;;;;;;33.88;21.13;;;;;;;;;;10276486;28;20072;-60
2022/11/24 06:37:36;;;;;;;26.73;17.67;;;;;;;;;;10274881;28;20681;-60
2022/11/24 06:42:34;;;;;;;19.80;15.77;;;;;;;;;;10274362;28;20497;-61
2022/11/24 06:47:34;;;;;;;15.13;12.38;;;;;;;;;;10272895;28;20075;-60
2022/11/24 06:52:32;;;;;;;20.35;12.65;;;;;;;;;;10274522;28;20076;-61
2022/11/24 06:57:31;;;;;;;18.45;13.05;;;;;;;;;;10273977;28;20067;-61
2022/11/24 07:02:29;;;;;;;20.23;15.25;;;;;;;;;;10273229;28;20517;-61
2022/11/24 07:07:29;;;;;;;21.15;16.45;;;;;;;;;;10275887;28;20072;-62
2022/11/24 07:12:28;;;;;;;22.48;16.08;;;;;;;;;;10273285;28;20537;-62
2022/11/24 07:17:26;;;;;;;19.60;15.70;;;;;;;;;;10264723;28;20077;-61
2022/11/24 07:22:24;;;;;;;19.55;13.45;;;;;;;;;;10269214;28;20073;-62
2022/11/24 07:27:24;;;;;;;21.05;17.63;;;;;;;;;;10270960;28;20087;-62
2022/11/24 07:32:22;;;;;;;18.98;13.85;;;;;;;;;;10263326;28;20077;-61
2022/11/24 07:37:20;;;;;;;21.38;16.63;;;;;;;;;;10261410;28;20084;-61
2022/11/24 07:42:27;;;;;;;28.35;17.90;;;;;;;;;;10258908;28;20065;-61
2022/11/24 07:47:25;;;;;;;27.65;18.98;;;;;;;;;;10255619;28;20072;-61
2022/11/24 07:52:25;;;;;;;24.75;17.67;;;;;;;;;;10265717;28;20068;-60
2022/11/24 07:57:23;;;;;;;26.80;18.55;;;;;;;;;;10249491;28;20073;-60
2022/11/24 08:02:24;;;;;;;25.40;17.02;;;;;;;;;;10236435;28;20478;-60
2022/11/24 08:07:22;;;;;;;28.20;18.17;;;;;;;;;;10253776;28;20076;-61
2022/11/24 08:12:21;;;;;;;24.88;17.40;;;;;;;;;;10253241;28;20092;-61
2022/11/24 08:17:19;;;;;;;22.33;15.52;;;;;;;;;;10259179;28;20076;-61
2022/11/24 08:22:19;;;;;;;54.83;28.98;;;;;;;;;;10258193;28;20081;-59
2022/11/24 08:27:18;;;;;;;14.57;10.25;;;;;;;;;;10253934;28;20462;-61
2022/11/24 08:32:16;;;;;;;22.98;18.42;;;;;;;;;;10263854;28;20077;-61
2022/11/24 08:37:20;;;;;;;16.67;13.55;;;;;;;;;;10268741;28;20068;-62
2022/11/24 08:42:18;;;;;;;14.60;11.68;;;;;;;;;;10269818;28;20045;-62
2022/11/24 08:47:17;;;;;;;24.20;15.23;;;;;;;;;;10269845;28;20073;-62
2022/11/24 08:52:16;;;;;;;32.42;22.80;;;;;;;;;;10269539;28;20073;-61
2022/11/24 08:57:15;;;;;;;23.33;16.52;;;;;;;;;;10266343;28;20171;-62
2022/11/24 09:02:19;;;;;;;22.55;16.52;;;;;;;;;;10268578;28;20506;-62
2022/11/24 09:07:17;;;;;;;20.40;14.05;;;;;;;;;;10271569;28;20045;-62
2022/11/24 09:12:16;;;;;;;26.75;18.80;;;;;;;;;;10275796;28;20103;-62
2022/11/24 09:17:15;;;;;;;21.58;15.77;;;;;;;;;;10271446;28;20491;-61
2022/11/24 09:22:13;;;;;;;18.75;14.25;;;;;;;;;;10262157;28;20065;-60
2022/11/24 09:27:11;;;;;;;21.42;14.05;;;;;;;;;;10252665;28;20072;-61
2022/11/24 09:32:11;;;;;;;18.35;14.68;;;;;;;;;;10264610;28;20635;-60
2022/11/24 09:37:09;;;;;;;22.83;15.77;;;;;;;;;;10266870;28;20076;-60
2022/11/24 09:42:12;;;;;;;22.25;15.15;;;;;;;;;;10272942;28;20064;-61
2022/11/24 09:47:16;;;;;;;22.98;17.30;;;;;;;;;;10250897;28;20082;-60
2022/11/24 09:52:16;;;;;;;22.73;18.08;;;;;;;;;;10235751;28;20180;-61
2022/11/24 09:57:14;;;;;;;28.70;20.75;;;;;;;;;;10248400;28;20080;-62
2022/11/24 10:02:14;;;;;;;26.08;19.65;;;;;;;;;;10260652;28;20069;-61
2022/11/24 10:07:18;;;;;;;35.47;29.25;;;;;;;;;;10267127;28;20071;-62
2022/11/24 10:12:22;;;;;;;21.83;17.40;;;;;;;;;;10271873;28;20306;-61
2022/11/24 10:17:28;;;;;;;24.27;16.30;;;;;;;;;;10250370;28;20144;-61
2022/11/24 10:22:35;;;;;;;26.92;19.65;;;;;;;;;;10251248;28;20065;-63
2022/11/24 10:27:34;;;;;;;23.70;19.02;;;;;;;;;;10262341;28;20096;-62
2022/11/24 10:32:37;;;;;;;22.65;17.35;;;;;;;;;;10264181;28;20080;-62
2022/11/24 10:37:40;;;;;;;24.85;18.38;;;;;;;;;;10262802;28;20075;-61
2022/11/24 10:42:39;;;;;;;31.45;21.25;;;;;;;;;;10260486;28;20065;-61
2022/11/24 10:47:39;;;;;;;29.58;22.75;;;;;;;;;;10262931;28;20080;-62
2022/11/24 10:52:40;;;;;;;43.22;32.63;;;;;;;;;;10267034;28;20077;-62
2022/11/24 10:57:40;;;;;;;34.20;26.42;;;;;;;;;;10271379;28;20073;-61
2022/11/24 11:02:39;;;;;;;26.67;21.40;;;;;;;;;;10273330;28;20064;-61
2022/11/24 11:07:38;;;;;;;16.27;13.95;;;;;;;;;;10269338;28;20060;-62
2022/11/24 11:12:36;;;;;;;10.00;6.90;;;;;;;;;;10250273;28;20084;-62
2022/11/24 11:17:44;;;;;;;5.00;4.30;;;;;;;;;;10236392;28;20396;-62
2022/11/24 11:22:45;;;;;;;5.57;4.38;;;;;;;;;;10246758;28;20140;-63
2022/11/24 11:27:43;;;;;;;4.70;4.30;;;;;;;;;;10263706;28;20088;-61
2022/11/24 11:32:50;;;;;;;7.10;6.40;;;;;;;;;;10255951;28;20069;-62
2022/11/24 11:38:11;;;;;;;7.32;5.18;;;;;;;;;;10256677;28;20082;-61
2022/11/24 11:43:15;;;;;;;13.90;11.00;;;;;;;;;;10255026;28;20065;-62
2022/11/24 11:48:28;;;;;;;11.88;6.53;;;;;;;;;;10254582;28;20064;-62
2022/11/24 11:53:43;;;;;;;10.10;8.32;;;;;;;;;;10255524;28;20455;-62
2022/11/24 11:59:03;;;;;;;13.68;10.63;;;;;;;;;;10254369;28;20644;-61
2022/11/24 12:04:11;;;;;;;14.48;10.55;;;;;;;;;;10253598;28;20717;-62
2022/11/24 12:09:17;;;;;;;6.70;6.00;;;;;;;;;;10252194;28;20085;-61
2022/11/24 12:14:22;;;;;;;18.45;11.18;;;;;;;;;;10250366;28;20072;-61
2022/11/24 12:19:35;;;;;;;15.05;11.57;;;;;;;;;;10244406;28;20084;-62
2022/11/24 12:24:40;;;;;;;15.52;11.45;;;;;;;;;;10251278;28;20081;-62
2022/11/24 12:29:57;;;;;;;8.60;7.70;;;;;;;;;;10250169;28;20068;-61
2022/11/24 12:34:59;;;;;;;9.07;8.18;;;;;;;;;;10252824;28;20087;-61
2022/11/24 12:40:03;;;;;;;16.13;11.73;;;;;;;;;;10252881;28;20486;-62
2022/11/24 12:45:12;;;;;;;11.60;10.45;;;;;;;;;;10258820;28;20076;-62
2022/11/24 12:50:13;;;;;;;13.63;12.20;;;;;;;;;;10262075;28;20068;-63
2022/11/24 12:55:17;;;;;;;8.35;7.55;;;;;;;;;;10262999;28;20079;-63
2022/11/24 13:00:19;;;;;;;8.68;7.82;;;;;;;;;;10262087;28;20073;-61
2022/11/24 13:05:21;;;;;;;10.27;8.40;;;;;;;;;;10262151;28;20069;-60
2022/11/24 13:10:31;;;;;;;11.75;9.50;;;;;;;;;;10259556;28;20076;-60
2022/11/24 13:16:08;;;;;;;11.02;9.55;;;;;;;;;;10260248;28;20085;-63
2022/11/24 13:21:30;;;;;;;15.88;11.15;;;;;;;;;;10268859;28;20071;-62
2022/11/24 13:26:30;;;;;;;20.33;17.13;;;;;;;;;;10260511;28;20543;-62
2022/11/24 13:31:31;;;;;;;11.95;10.73;;;;;;;;;;10259581;28;20079;-61
2022/11/24 13:36:33;;;;;;;20.52;18.33;;;;;;;;;;10261493;28;20052;-62
2022/11/24 13:41:50;;;;;;;11.75;9.90;;;;;;;;;;10261487;28;20084;-62
2022/11/24 13:47:00;;;;;;;11.52;9.88;;;;;;;;;;10261326;28;20079;-62
2022/11/24 13:52:18;;;;;;;9.55;8.00;;;;;;;;;;10258102;28;20084;-62
2022/11/24 13:57:35;;;;;;;43.28;27.17;;;;;;;;;;10262329;28;20087;-61
2022/11/24 14:02:35;;;;;;;36.53;19.48;;;;;;;;;;10258913;28;20076;-61
2022/11/24 14:07:34;;;;;;;23.85;16.23;;;;;;;;;;10261641;28;20072;-60
2022/11/24 14:12:32;;;;;;;67.25;36.13;;;;;;;;;;10261416;28;20081;-60
2022/11/24 14:17:31;;;;;;;74.78;36.38;;;;;;;;;;10260387;28;20083;-61
2022/11/24 14:22:34;;;;;;;69.13;39.20;;;;;;;;;;10259194;28;20076;-61
2022/11/24 14:27:34;;;;;;;20.88;15.13;;;;;;;;;;10252583;28;20069;-61
2022/11/24 14:32:32;;;;;;;33.50;19.73;;;;;;;;;;10245242;28;20064;-60
2022/11/24 14:37:30;;;;;;;17.52;13.52;;;;;;;;;;10261239;28;20069;-62
2022/11/24 14:42:32;;;;;;;22.48;19.23;;;;;;;;;;10264857;28;20076;-62
2022/11/24 14:47:30;;;;;;;18.25;14.75;;;;;;;;;;10261533;28;20083;-61
2022/11/24 14:52:29;;;;;;;57.35;51.47;;;;;;;;;;10272285;28;20076;-61
2022/11/24 14:57:32;;;;;;;12.40;11.10;;;;;;;;;;10270549;28;20471;-61
2022/11/24 15:02:39;;;;;;;18.80;15.48;;;;;;;;;;10269034;28;20072;-62
2022/11/24 15:07:39;;;;;;;17.17;15.32;;;;;;;;;;10269090;28;20080;-62
2022/11/24 15:12:39;;;;;;;20.33;18.05;;;;;;;;;;10252347;28;20084;-63
2022/11/24 15:17:45;;;;;;;23.25;19.83;;;;;;;;;;10244239;28;20434;-62
2022/11/24 15:22:44;;;;;;;20.02;16.60;;;;;;;;;;10250011;28;20411;-61
2022/11/24 15:27:43;;;;;;;14.68;12.05;;;;;;;;;;10263918;28;20041;-61
2022/11/24 15:32:48;;;;;;;17.27;15.10;;;;;;;;;;10250702;28;20069;-60
2022/11/24 15:37:46;;;;;;;12.65;11.35;;;;;;;;;;10269226;28;20726;-61
2022/11/24 15:42:50;;;;;;;16.20;14.05;;;;;;;;;;10268502;28;20080;-62
2022/11/24 15:47:48;;;;;;;20.75;18.08;;;;;;;;;;10267408;28;20061;-62
2022/11/24 15:52:47;;;;;;;20.40;16.08;;;;;;;;;;10264109;28;20076;-61
2022/11/24 15:57:47;;;;;;;21.40;17.10;;;;;;;;;;10267968;28;20072;-60
2022/11/24 16:02:45;;;;;;;37.60;27.63;;;;;;;;;;10267336;28;20080;-60
2022/11/24 16:07:44;;;;;;;52.88;35.85;;;;;;;;;;10264814;28;20084;-60
2022/11/24 16:12:42;;;;;;;52.42;36.78;;;;;;;;;;10266445;28;20088;-62
2022/11/24 16:17:42;;;;;;;31.75;22.92;;;;;;;;;;10265834;28;20106;-60
2022/11/24 16:22:40;;;;;;;40.35;29.48;;;;;;;;;;10265702;28;20156;-61
2022/11/24 16:27:39;;;;;;;34.55;25.55;;;;;;;;;;10263843;28;20068;-60
2022/11/24 16:32:37;;;;;;;22.55;18.20;;;;;;;;;;10265874;28;20077;-61
2022/11/24 16:37:37;;;;;;;24.90;22.02;;;;;;;;;;10248230;28;20128;-61
2022/11/24 16:42:35;;;;;;;19.15;17.15;;;;;;;;;;10258473;28;20119;-61
2022/11/24 16:47:38;;;;;;;15.55;13.95;;;;;;;;;;10258076;28;20104;-60
2022/11/24 16:52:38;;;;;;;14.60;11.73;;;;;;;;;;10258758;28;20081;-59
2022/11/24 16:57:36;;;;;;;19.45;17.08;;;;;;;;;;10258767;28;20065;-59
2022/11/24 17:02:34;;;;;;;28.40;24.27;;;;;;;;;;10259032;28;20072;-61
2022/11/24 17:07:33;;;;;;;40.92;28.45;;;;;;;;;;10259935;28;20056;-61
2022/11/24 17:12:34;;;;;;;17.85;15.00;;;;;;;;;;10259320;28;20104;-59
2022/11/24 17:17:32;;;;;;;47.97;31.50;;;;;;;;;;10258002;28;20475;-60
2022/11/24 17:22:31;;;;;;;17.70;12.45;;;;;;;;;;10258831;28;20063;-61
2022/11/24 17:27:29;;;;;;;28.15;19.77;;;;;;;;;;10257802;28;20082;-60
2022/11/24 17:32:28;;;;;;;25.58;18.35;;;;;;;;;;10264528;28;20072;-61
2022/11/24 17:37:27;;;;;;;23.65;16.70;;;;;;;;;;10268023;28;20083;-61
2022/11/24 17:42:25;;;;;;;86.95;51.92;;;;;;;;;;10270275;28;20075;-61
2022/11/24 17:47:27;;;;;;;32.90;23.08;;;;;;;;;;10276483;28;20459;-61
2022/11/24 17:52:29;;;;;;;39.78;25.25;;;;;;;;;;10275958;28;20068;-62
2022/11/24 17:57:27;;;;;;;73.13;41.38;;;;;;;;;;10278679;28;20552;-62
2022/11/24 18:02:25;;;;;;;23.63;16.63;;;;;;;;;;10275918;28;20506;-62
2022/11/24 18:07:24;;;;;;;25.90;21.35;;;;;;;;;;10275849;28;20087;-61
2022/11/24 18:12:23;;;;;;;20.38;16.83;;;;;;;;;;10264440;28;20083;-62
2022/11/24 18:17:22;;;;;;;17.25;14.70;;;;;;;;;;10261046;28;20073;-62
2022/11/24 18:22:20;;;;;;;16.40;13.95;;;;;;;;;;10254687;28;20516;-62
2022/11/24 18:27:40;;;;;;;26.35;19.65;;;;;;;;;;10261067;28;20100;-61
2022/11/24 18:32:38;;;;;;;21.30;15.50;;;;;;;;;;10259547;28;20080;-61
2022/11/24 18:37:42;;;;;;;31.17;23.63;;;;;;;;;;10254674;28;20107;-61
2022/11/24 18:42:41;;;;;;;26.65;19.95;;;;;;;;;;10259938;28;20510;-62
2022/11/24 18:47:42;;;;;;;22.73;17.70;;;;;;;;;;10267533;28;20069;-61
2022/11/24 18:52:40;;;;;;;17.35;13.13;;;;;;;;;;10268248;28;20077;-62
2022/11/24 18:57:39;;;;;;;14.32;12.32;;;;;;;;;;10271690;28;20068;-61
2022/11/24 19:02:38;;;;;;;24.67;16.40;;;;;;;;;;10274670;28;20064;-61
2022/11/24 19:07:36;;;;;;;25.13;18.38;;;;;;;;;;10269881;28;20080;-60
2022/11/24 19:12:35;;;;;;;16.27;12.82;;;;;;;;;;10270533;28;20080;-61
2022/11/24 19:17:33;;;;;;;35.63;22.50;;;;;;;;;;10267020;28;20069;-61
2022/11/24 19:22:33;;;;;;;19.48;14.68;;;;;;;;;;10271374;28;20071;-60
2022/11/24 19:27:33;;;;;;;17.50;14.35;;;;;;;;;;10274346;28;20072;-61
2022/11/24 19:32:31;;;;;;;33.83;22.35;;;;;;;;;;10273318;28;20072;-61
2022/11/24 19:37:29;;;;;;;16.27;12.07;;;;;;;;;;10267113;28;20069;-61
2022/11/24 19:42:29;;;;;;;10.90;8.95;;;;;;;;;;10273647;28;20087;-62
2022/11/24 19:47:27;;;;;;;15.57;11.50;;;;;;;;;;10271392;28;20080;-61
2022/11/24 19:52:26;;;;;;;13.48;10.82;;;;;;;;;;10271050;28;20515;-61
2022/11/24 19:57:24;;;;;;;18.50;13.45;;;;;;;;;;10260694;28;20076;-61
2022/11/24 20:02:23;;;;;;;23.42;16.60;;;;;;;;;;10267666;28;20111;-62
2022/11/24 20:07:22;;;;;;;12.48;9.18;;;;;;;;;;10263107;28;20069;-62
2022/11/24 20:12:23;;;;;;;20.15;12.27;;;;;;;;;;10263470;28;20115;-62
2022/11/24 20:17:21;;;;;;;12.65;9.48;;;;;;;;;;10263850;28;20079;-62
2022/11/24 20:22:20;;;;;;;9.05;6.80;;;;;;;;;;10272533;28;20071;-62
2022/11/24 20:27:19;;;;;;;9.38;7.60;;;;;;;;;;10271160;28;20077;-61
2022/11/24 20:32:19;;;;;;;10.82;8.40;;;;;;;;;;10266612;28;20080;-67
2022/11/24 20:37:17;;;;;;;8.63;7.07;;;;;;;;;;10268544;28;20096;-61
2022/11/24 20:42:16;;;;;;;12.38;9.30;;;;;;;;;;10270432;28;20526;-61
2022/11/24 20:47:14;;;;;;;9.18;7.35;;;;;;;;;;10263363;28;20060;-60
2022/11/24 20:52:13;;;;;;;9.50;7.93;;;;;;;;;;10282584;28;20470;-61
2022/11/24 20:57:11;;;;;;;15.43;11.15;;;;;;;;;;10273057;28;20072;-61
2022/11/24 21:02:11;;;;;;;8.02;6.30;;;;;;;;;;10271005;28;20454;-60
2022/11/24 21:07:12;;;;;;;8.80;6.95;;;;;;;;;;10276668;28;20045;-61
2022/11/24 21:12:10;;;;;;;7.65;6.72;;;;;;;;;;10280298;28;20072;-61
2022/11/24 21:17:08;;;;;;;15.95;10.52;;;;;;;;;;10277301;28;20075;-62
2022/11/24 21:22:08;;;;;;;10.65;8.60;;;;;;;;;;10276669;28;20087;-61
2022/11/24 21:27:06;;;;;;;11.15;7.95;;;;;;;;;;10279620;28;20084;-61
2022/11/24 21:32:05;;;;;;;11.27;8.80;;;;;;;;;;10241180;28;20049;-61
2022/11/24 21:37:03;;;;;;;7.35;6.55;;;;;;;;;;10252454;28;20487;-61
2022/11/24 21:42:02;;;;;;;8.85;6.35;;;;;;;;;;10279166;28;20041;-62
2022/11/24 21:47:02;;;;;;;11.15;8.65;;;;;;;;;;10274669;28;20080;-61
2022/11/24 21:52:00;;;;;;;6.45;5.85;;;;;;;;;;10274291;28;20056;-61
2022/11/24 21:56:58;;;;;;;10.73;8.07;;;;;;;;;;10274435;28;20549;-60
2022/11/24 22:01:58;;;;;;;8.93;8.00;;;;;;;;;;10275433;28;20056;-61
2022/11/24 22:06:56;;;;;;;7.00;5.85;;;;;;;;;;10276702;28;20072;-61
2022/11/24 22:11:54;;;;;;;8.30;6.93;;;;;;;;;;10274902;28;20060;-61
2022/11/24 22:16:52;;;;;;;7.55;6.85;;;;;;;;;;10272980;28;20091;-61
2022/11/24 22:21:52;;;;;;;7.30;5.95;;;;;;;;;;10272509;28;20506;-60
2022/11/24 22:26:51;;;;;;;7.80;5.85;;;;;;;;;;10273283;28;20525;-60
2022/11/24 22:31:49;;;;;;;9.60;7.50;;;;;;;;;;10272569;28;20077;-60
2022/11/24 22:36:47;;;;;;;16.98;11.98;;;;;;;;;;10275995;28;20081;-60
2022/11/24 22:41:47;;;;;;;14.73;8.65;;;;;;;;;;10273093;28;20075;-60
2022/11/24 22:46:45;;;;;;;7.93;6.63;;;;;;;;;;10272357;28;20071;-60
2022/11/24 22:51:43;;;;;;;5.95;4.60;;;;;;;;;;10271440;28;20100;-61
2022/11/24 22:56:41;;;;;;;5.15;4.65;;;;;;;;;;10272121;28;20079;-62
2022/11/24 23:01:41;;;;;;;13.73;9.60;;;;;;;;;;10271716;28;20076;-62
2022/11/24 23:06:39;;;;;;;7.82;6.53;;;;;;;;;;10271728;28;20041;-61
2022/11/24 23:11:38;;;;;;;7.80;7.03;;;;;;;;;;10270580;28;20080;-60
2022/11/24 23:16:36;;;;;;;8.75;7.70;;;;;;;;;;10271219;28;20073;-60
2022/11/24 23:21:37;;;;;;;9.13;7.53;;;;;;;;;;10271194;28;20163;-61
2022/11/24 23:26:36;;;;;;;12.13;7.28;;;;;;;;;;10269549;28;20065;-61
2022/11/24 23:31:35;;;;;;;9.25;7.65;;;;;;;;;;10273477;28;20044;-61
2022/11/24 23:36:33;;;;;;;9.55;7.55;;;;;;;;;;10270499;28;20103;-60
2022/11/24 23:41:33;;;;;;;7.03;6.32;;;;;;;;;;10270682;28;20501;-62
2022/11/24 23:46:31;;;;;;;6.65;5.65;;;;;;;;;;10270221;28;20064;-60
2022/11/24 23:51:30;;;;;;;17.95;9.77;;;;;;;;;;10269877;28;20055;-60
2022/11/24 23:56:31;;;;;;;6.20;5.50;;;;;;;;;;10269861;28;20076;-60
